createdAt,value
2023-01-13T00:00:55.076Z,59.43
2023-01-13T00:02:26.629Z,59.50
2023-01-13T00:03:58.268Z,59.45
2023-01-13T00:05:29.791Z,59.62
2023-01-13T00:07:01.246Z,60.00
2023-01-13T00:08:32.779Z,59.47
2023-01-13T00:10:04.692Z,59.61
2023-01-13T00:11:36.147Z,59.34
2023-01-13T00:13:08.263Z,59.86
2023-01-13T00:14:39.702Z,59.63
2023-01-13T00:16:12.248Z,59.87
2023-01-13T00:17:44.039Z,59.98
2023-01-13T00:19:15.594Z,59.71
2023-01-13T00:20:47.075Z,59.63
2023-01-13T00:22:18.627Z,59.68
2023-01-13T00:23:50.457Z,59.56
2023-01-13T00:25:21.955Z,59.65
2023-01-13T00:26:53.426Z,59.96
2023-01-13T00:28:25.042Z,59.70
2023-01-13T00:29:56.501Z,60.32
2023-01-13T00:31:28.374Z,59.66
2023-01-13T00:32:59.866Z,59.58
2023-01-13T00:34:31.363Z,59.98
2023-01-13T00:36:03.030Z,60.17
2023-01-13T00:37:38.113Z,60.44
2023-01-13T00:39:09.743Z,60.45
2023-01-13T00:40:41.247Z,59.92
2023-01-13T00:42:31.800Z,59.52
2023-01-13T00:44:03.331Z,59.92
2023-01-13T00:45:34.854Z,59.58
2023-01-13T00:47:06.396Z,59.32
2023-01-13T00:48:38.139Z,59.29
2023-01-13T00:50:10.134Z,59.35
2023-01-13T00:51:41.568Z,59.41
2023-01-13T00:53:14.022Z,59.58
2023-01-13T00:54:45.564Z,59.85
2023-01-13T00:56:22.143Z,59.61
2023-01-13T00:58:05.788Z,59.70
2023-01-13T00:59:42.485Z,60.11
2023-01-13T01:01:34.859Z,60.00
2023-01-13T01:03:25.948Z,59.80
2023-01-13T01:05:00.175Z,60.63
2023-01-13T01:06:31.720Z,60.05
2023-01-13T01:08:03.288Z,60.08
2023-01-13T01:09:34.778Z,60.29
2023-01-13T01:11:07.800Z,60.13
2023-01-13T01:12:42.118Z,60.12
2023-01-13T01:14:20.186Z,59.97
2023-01-13T01:16:03.026Z,60.63
2023-01-13T01:18:09.756Z,60.77
2023-01-13T01:19:42.392Z,60.73
2023-01-13T01:21:14.150Z,60.07
2023-01-13T01:22:45.660Z,60.20
2023-01-13T01:24:17.221Z,59.78
2023-01-13T01:25:48.723Z,60.05
2023-01-13T01:27:20.310Z,59.81
2023-01-13T01:28:53.517Z,60.03
2023-01-13T01:32:16.561Z,60.15
2023-01-13T01:33:51.858Z,60.45
2023-01-13T01:35:26.010Z,60.15
2023-01-13T01:37:01.335Z,60.12
2023-01-13T01:38:54.773Z,60.55
2023-01-13T01:40:36.450Z,60.75
2023-01-13T01:42:48.567Z,60.23
2023-01-13T01:44:46.762Z,60.76
2023-01-13T01:48:13.367Z,60.52
2023-01-13T01:49:44.958Z,60.24
2023-01-13T01:51:16.520Z,60.78
2023-01-13T01:52:49.584Z,60.52
2023-01-13T01:54:26.046Z,60.49
2023-01-13T01:56:10.166Z,60.12
2023-01-13T01:57:59.006Z,60.14
2023-01-13T01:59:37.171Z,60.35
2023-01-13T02:01:16.621Z,60.72
2023-01-13T02:02:49.246Z,60.15
2023-01-13T02:04:28.481Z,60.13
2023-01-13T02:06:18.573Z,60.36
2023-01-13T02:07:58.181Z,60.01
2023-01-13T02:09:34.780Z,60.30
2023-01-13T02:13:22.981Z,60.89
2023-01-13T02:14:54.442Z,60.59
2023-01-13T02:16:25.884Z,61.04
2023-01-13T02:18:06.232Z,60.61
2023-01-13T02:19:56.858Z,60.92
2023-01-13T02:21:40.314Z,60.09
2023-01-13T02:23:49.313Z,60.35
2023-01-13T02:25:38.987Z,60.00
2023-01-13T02:27:17.036Z,60.05
2023-01-13T02:29:18.647Z,60.53
2023-01-13T02:31:10.667Z,60.53
2023-01-13T02:33:00.475Z,60.41
2023-01-13T02:34:42.637Z,60.23
2023-01-13T02:36:17.896Z,60.07
2023-01-13T02:37:49.338Z,59.94
2023-01-13T02:39:26.994Z,60.14
2023-01-13T02:41:21.053Z,60.05
2023-01-13T02:43:10.840Z,60.56
2023-01-13T02:44:43.755Z,60.06
2023-01-13T02:46:20.777Z,60.56
2023-01-13T02:47:55.875Z,60.16
2023-01-13T02:49:29.941Z,60.38
2023-01-13T02:51:05.101Z,60.60
2023-01-13T02:52:52.635Z,60.22
2023-01-13T02:54:24.643Z,60.76
2023-01-13T02:55:56.349Z,60.60
2023-01-13T02:57:27.834Z,60.52
2023-01-13T02:58:59.381Z,60.69
2023-01-13T03:00:30.985Z,60.58
2023-01-13T03:02:03.558Z,60.79
2023-01-13T03:03:36.676Z,60.75
2023-01-13T03:05:08.234Z,60.31
2023-01-13T03:06:39.726Z,60.29
2023-01-13T03:08:39.747Z,60.40
2023-01-13T03:10:15.975Z,60.55
2023-01-13T03:12:07.308Z,59.68
2023-01-13T03:13:39.339Z,60.75
2023-01-13T03:15:29.554Z,60.44
2023-01-13T03:17:04.179Z,59.81
2023-01-13T03:18:45.010Z,60.21
2023-01-13T03:20:18.655Z,59.86
2023-01-13T03:22:08.135Z,59.80
2023-01-13T03:23:53.482Z,60.38
2023-01-13T03:25:26.263Z,59.69
2023-01-13T03:27:16.949Z,59.89
2023-01-13T03:29:07.109Z,59.89
2023-01-13T03:30:43.058Z,59.77
2023-01-13T03:32:23.206Z,60.29
2023-01-13T03:33:55.744Z,60.19
2023-01-13T03:35:31.363Z,59.69
2023-01-13T03:37:04.000Z,59.63
2023-01-13T03:38:42.898Z,59.46
2023-01-13T03:40:15.604Z,59.68
2023-01-13T03:41:53.180Z,59.84
2023-01-13T03:43:44.970Z,59.68
2023-01-13T03:45:17.094Z,59.64
2023-01-13T03:46:58.594Z,59.92
2023-01-13T03:48:30.200Z,59.62
2023-01-13T03:50:07.096Z,60.47
2023-01-13T03:51:39.133Z,59.99
2023-01-13T03:53:11.646Z,59.91
2023-01-13T03:54:45.210Z,59.87
2023-01-13T03:56:18.127Z,60.09
2023-01-13T03:57:53.407Z,60.05
2023-01-13T03:59:27.113Z,60.30
2023-01-13T04:01:03.533Z,60.11
2023-01-13T04:02:44.515Z,60.32
2023-01-13T04:04:20.334Z,60.50
2023-01-13T04:05:52.672Z,60.81
2023-01-13T04:07:42.668Z,60.70
2023-01-13T04:09:17.429Z,60.60
2023-01-13T04:10:53.520Z,60.12
2023-01-13T04:12:27.496Z,59.76
2023-01-13T04:13:59.497Z,60.59
2023-01-13T04:15:35.197Z,60.86
2023-01-13T04:17:06.927Z,60.21
2023-01-13T04:18:38.816Z,60.50
2023-01-13T04:20:10.631Z,60.29
2023-01-13T04:21:42.419Z,60.43
2023-01-13T04:23:13.982Z,60.05
2023-01-13T04:24:45.625Z,59.89
2023-01-13T04:26:17.712Z,59.75
2023-01-13T04:27:49.323Z,59.76
2023-01-13T04:29:20.905Z,59.76
2023-01-13T04:30:52.623Z,60.21
2023-01-13T04:32:24.203Z,59.82
2023-01-13T04:33:55.986Z,60.02
2023-01-13T04:35:27.688Z,60.04
2023-01-13T04:36:59.251Z,59.65
2023-01-13T04:38:30.853Z,59.87
2023-01-13T04:40:02.415Z,59.57
2023-01-13T04:41:53.935Z,59.40
2023-01-13T04:43:25.479Z,59.60
2023-01-13T04:44:57.081Z,59.29
2023-01-13T04:46:28.758Z,59.47
2023-01-13T04:48:00.312Z,60.03
2023-01-13T04:49:31.837Z,60.05
2023-01-13T04:51:03.389Z,59.85
2023-01-13T04:52:34.885Z,60.09
2023-01-13T04:54:06.428Z,60.36
2023-01-13T04:55:38.043Z,60.07
2023-01-13T04:57:09.960Z,60.37
2023-01-13T04:58:42.023Z,60.46
2023-01-13T05:00:14.470Z,60.29
2023-01-13T05:01:46.099Z,60.11
2023-01-13T05:03:18.707Z,60.27
2023-01-13T05:04:50.280Z,59.97
2023-01-13T05:06:21.831Z,60.03
2023-01-13T05:07:53.340Z,60.25
2023-01-13T05:09:24.985Z,60.44
2023-01-13T05:10:59.753Z,60.16
2023-01-13T05:12:50.007Z,59.94
2023-01-13T05:14:40.274Z,60.27
2023-01-13T05:16:30.450Z,60.37
2023-01-13T05:18:02.062Z,60.18
2023-01-13T05:19:34.360Z,60.64
2023-01-13T05:21:25.877Z,60.86
2023-01-13T05:23:16.209Z,60.67
2023-01-13T05:25:06.455Z,60.73
2023-01-13T05:26:37.956Z,60.31
2023-01-13T05:28:09.631Z,60.62
2023-01-13T05:29:41.227Z,60.92
2023-01-13T05:31:14.948Z,60.27
2023-01-13T05:32:46.760Z,60.50
2023-01-13T05:34:18.347Z,60.88
2023-01-13T05:35:50.048Z,60.57
2023-01-13T05:37:21.918Z,60.41
2023-01-13T05:38:53.416Z,60.22
2023-01-13T05:40:43.367Z,60.56
2023-01-13T05:42:33.577Z,60.62
2023-01-13T05:44:05.118Z,60.28
2023-01-13T05:45:36.740Z,60.82
2023-01-13T05:47:08.192Z,60.73
2023-01-13T05:48:40.567Z,60.84
2023-01-13T05:50:13.316Z,60.59
2023-01-13T05:51:44.877Z,60.57
2023-01-13T05:53:17.510Z,60.22
2023-01-13T05:54:49.144Z,60.73
2023-01-13T05:56:20.679Z,60.74
2023-01-13T05:57:52.221Z,60.26
2023-01-13T05:59:23.671Z,60.73
2023-01-13T06:00:59.400Z,60.78
2023-01-13T06:02:30.912Z,60.20
2023-01-13T06:04:02.782Z,60.51
2023-01-13T06:05:34.569Z,60.62
2023-01-13T06:07:06.333Z,60.83
2023-01-13T06:08:39.716Z,60.62
2023-01-13T06:10:11.619Z,60.11
2023-01-13T06:11:43.299Z,60.46
2023-01-13T06:13:14.853Z,60.53
2023-01-13T06:14:46.549Z,60.45
2023-01-13T06:16:18.396Z,60.22
2023-01-13T06:17:50.116Z,60.65
2023-01-13T06:19:21.852Z,60.58
2023-01-13T06:20:53.480Z,60.62
2023-01-13T06:22:26.457Z,60.68
2023-01-13T06:23:58.161Z,60.98
2023-01-13T06:25:32.720Z,60.71
2023-01-13T06:27:05.080Z,60.75
2023-01-13T06:28:36.666Z,60.63
2023-01-13T06:30:08.695Z,60.55
2023-01-13T06:31:41.136Z,60.64
2023-01-13T06:33:14.152Z,60.33
2023-01-13T06:34:46.606Z,60.39
2023-01-13T06:36:56.144Z,60.91
2023-01-13T06:38:27.932Z,60.56
2023-01-13T06:40:00.222Z,60.73
2023-01-13T06:41:51.314Z,60.53
2023-01-13T06:43:22.851Z,60.45
2023-01-13T06:44:54.912Z,60.12
2023-01-13T06:46:26.466Z,60.75
2023-01-13T06:47:59.416Z,60.40
2023-01-13T06:49:31.032Z,59.80
2023-01-13T06:51:03.392Z,59.82
2023-01-13T06:52:35.043Z,59.51
2023-01-13T06:54:06.689Z,59.98
2023-01-13T06:55:38.845Z,60.33
2023-01-13T06:57:10.359Z,59.89
2023-01-13T06:58:41.990Z,60.05
2023-01-13T07:00:13.832Z,60.30
2023-01-13T07:01:45.540Z,59.93
2023-01-13T07:03:17.269Z,60.02
2023-01-13T07:04:49.049Z,60.44
2023-01-13T07:06:20.573Z,60.56
2023-01-13T07:07:52.138Z,60.36
2023-01-13T07:09:24.043Z,60.54
2023-01-13T07:10:55.699Z,60.87
2023-01-13T07:12:27.151Z,60.34
2023-01-13T07:14:17.184Z,61.11
2023-01-13T07:15:57.964Z,60.53
2023-01-13T07:17:29.500Z,60.74
2023-01-13T07:19:01.149Z,60.92
2023-01-13T07:20:32.809Z,60.15
2023-01-13T07:22:04.453Z,60.44
2023-01-13T07:23:39.945Z,61.15
2023-01-13T07:25:11.980Z,60.39
2023-01-13T07:26:43.959Z,60.45
2023-01-13T07:28:15.864Z,60.62
2023-01-13T07:29:48.140Z,61.04
2023-01-13T07:31:21.425Z,61.10
2023-01-13T07:32:53.721Z,60.93
2023-01-13T07:34:32.169Z,60.82
2023-01-13T07:36:15.388Z,60.76
2023-01-13T07:37:47.487Z,61.12
2023-01-13T07:39:19.807Z,60.74
2023-01-13T07:40:51.838Z,60.47
2023-01-13T07:42:42.195Z,60.25
2023-01-13T07:44:14.234Z,61.04
2023-01-13T07:45:46.169Z,60.54
2023-01-13T07:47:22.748Z,60.46
2023-01-13T07:48:54.615Z,60.19
2023-01-13T07:50:36.281Z,60.06
2023-01-13T07:52:08.261Z,59.82
2023-01-13T07:53:40.726Z,59.90
2023-01-13T07:55:12.799Z,60.03
2023-01-13T07:56:44.748Z,59.56
2023-01-13T07:58:17.126Z,60.09
2023-01-13T07:59:49.218Z,59.43
2023-01-13T08:01:21.718Z,59.76
2023-01-13T08:02:54.375Z,60.24
2023-01-13T08:04:26.013Z,59.96
2023-01-13T08:05:57.647Z,60.32
2023-01-13T08:07:29.457Z,59.74
2023-01-13T08:09:01.033Z,59.98
2023-01-13T08:10:32.617Z,60.22
2023-01-13T08:12:22.749Z,59.93
2023-01-13T08:13:58.483Z,59.77
2023-01-13T08:15:34.013Z,60.08
2023-01-13T08:17:06.086Z,60.10
2023-01-13T08:18:38.347Z,59.98
2023-01-13T08:20:10.949Z,59.76
2023-01-13T08:21:43.192Z,59.67
2023-01-13T08:23:15.896Z,60.57
2023-01-13T08:24:49.957Z,60.40
2023-01-13T08:26:25.362Z,59.84
2023-01-13T08:27:57.697Z,59.74
2023-01-13T08:29:29.462Z,59.58
2023-01-13T08:31:02.200Z,60.16
2023-01-13T08:32:34.716Z,60.09
2023-01-13T08:34:07.456Z,60.19
2023-01-13T08:35:42.658Z,60.19
2023-01-13T08:37:14.786Z,60.09
2023-01-13T08:38:46.647Z,60.51
2023-01-13T08:40:19.939Z,60.57
2023-01-13T08:41:58.901Z,60.55
2023-01-13T08:43:32.809Z,60.38
2023-01-13T08:45:06.865Z,59.93
2023-01-13T08:46:39.310Z,60.16
2023-01-13T08:48:13.791Z,60.38
2023-01-13T08:49:46.110Z,60.52
2023-01-13T08:51:18.397Z,60.21
2023-01-13T08:52:50.575Z,59.53
2023-01-13T08:54:25.156Z,59.99
2023-01-13T08:55:56.867Z,60.03
2023-01-13T08:57:29.246Z,59.68
2023-01-13T08:59:01.612Z,59.57
2023-01-13T09:00:34.003Z,59.31
2023-01-13T09:02:17.798Z,59.34
2023-01-13T09:03:53.557Z,59.70
2023-01-13T09:05:28.771Z,58.82
2023-01-13T09:07:03.113Z,59.31
2023-01-13T09:08:35.259Z,59.02
2023-01-13T09:10:07.863Z,59.49
2023-01-13T09:12:00.314Z,59.95
2023-01-13T09:13:32.594Z,59.34
2023-01-13T09:15:06.939Z,59.13
2023-01-13T09:16:39.072Z,59.25
2023-01-13T09:18:15.720Z,59.38
2023-01-13T09:19:47.581Z,59.56
2023-01-13T09:21:21.803Z,59.47
2023-01-13T09:22:56.819Z,59.74
2023-01-13T09:24:28.903Z,59.51
2023-01-13T09:26:10.059Z,60.10
2023-01-13T09:27:41.872Z,59.00
2023-01-13T09:29:14.489Z,59.00
2023-01-13T09:30:46.709Z,59.78
2023-01-13T09:32:18.894Z,59.57
2023-01-13T09:34:09.109Z,59.30
2023-01-13T09:35:41.219Z,58.80
2023-01-13T09:37:15.316Z,58.97
2023-01-13T09:38:46.907Z,59.11
2023-01-13T09:40:19.561Z,59.50
2023-01-13T09:42:11.494Z,59.24
2023-01-13T09:43:58.945Z,58.88
2023-01-13T09:45:42.829Z,58.51
2023-01-13T09:47:28.371Z,58.90
2023-01-13T09:49:00.039Z,58.50
2023-01-13T09:50:50.107Z,58.47
2023-01-13T09:52:26.922Z,58.30
2023-01-13T09:54:17.025Z,58.87
2023-01-13T09:55:48.634Z,58.55
2023-01-13T09:57:20.675Z,58.93
2023-01-13T09:58:53.304Z,58.80
2023-01-13T10:00:26.268Z,59.10
2023-01-13T10:02:05.961Z,58.75
2023-01-13T10:03:38.784Z,59.23
2023-01-13T10:05:22.262Z,59.15
2023-01-13T10:07:01.842Z,58.81
2023-01-13T10:08:40.030Z,59.42
2023-01-13T10:10:17.254Z,58.55
2023-01-13T10:13:56.554Z,59.22
2023-01-13T10:15:28.684Z,59.30
2023-01-13T10:17:24.063Z,59.32
2023-01-13T10:18:56.118Z,59.66
2023-01-13T10:20:30.846Z,59.35
2023-01-13T10:22:24.196Z,58.67
2023-01-13T10:23:57.729Z,59.16
2023-01-13T10:25:48.168Z,58.59
2023-01-13T10:27:30.765Z,58.20
2023-01-13T10:29:02.631Z,58.26
2023-01-13T10:30:36.242Z,58.48
2023-01-13T10:32:12.974Z,58.27
2023-01-13T10:33:47.961Z,58.61
2023-01-13T10:35:40.010Z,58.63
2023-01-13T10:37:25.012Z,58.28
2023-01-13T10:39:21.079Z,58.04
2023-01-13T10:40:54.007Z,58.12
2023-01-13T10:42:28.439Z,58.21
2023-01-13T10:44:01.863Z,58.39
2023-01-13T10:45:38.334Z,58.30
2023-01-13T10:47:16.816Z,58.19
2023-01-13T10:48:56.312Z,58.52
2023-01-13T10:50:29.090Z,58.05
2023-01-13T10:52:05.682Z,58.51
2023-01-13T10:53:45.400Z,58.16
2023-01-13T10:55:44.357Z,58.28
2023-01-13T10:57:20.021Z,58.85
2023-01-13T10:58:53.210Z,58.31
2023-01-13T11:00:29.656Z,58.46
2023-01-13T11:02:33.962Z,58.45
2023-01-13T11:04:16.946Z,58.32
2023-01-13T11:05:52.010Z,58.50
2023-01-13T11:07:38.892Z,58.48
2023-01-13T11:09:11.399Z,57.95
2023-01-13T11:11:04.284Z,58.24
2023-01-13T11:12:58.839Z,58.61
2023-01-13T11:14:43.974Z,58.22
2023-01-13T11:16:22.880Z,58.20
2023-01-13T11:18:05.267Z,58.00
2023-01-13T11:19:38.567Z,57.91
2023-01-13T11:21:19.406Z,57.82
2023-01-13T11:22:53.695Z,57.66
2023-01-13T11:24:45.351Z,57.51
2023-01-13T11:26:19.411Z,57.35
2023-01-13T11:28:05.176Z,57.09
2023-01-13T11:30:01.155Z,57.53
2023-01-13T11:31:33.798Z,57.51
2023-01-13T11:33:14.805Z,57.38
2023-01-13T11:34:48.734Z,57.55
2023-01-13T11:36:28.418Z,57.56
2023-01-13T11:38:02.474Z,57.52
2023-01-13T11:39:54.243Z,57.33
2023-01-13T11:41:30.793Z,57.64
2023-01-13T11:43:10.922Z,57.29
2023-01-13T11:44:46.169Z,57.33
2023-01-13T11:46:21.102Z,57.83
2023-01-13T11:47:55.217Z,57.63
2023-01-13T11:49:28.246Z,57.38
2023-01-13T11:51:15.347Z,57.73
2023-01-13T11:52:56.619Z,57.47
2023-01-13T11:54:38.642Z,57.61
2023-01-13T11:56:28.673Z,57.60
2023-01-13T11:58:03.562Z,57.40
2023-01-13T11:59:44.042Z,57.47
2023-01-13T12:01:28.864Z,57.54
2023-01-13T12:03:03.904Z,57.45
2023-01-13T12:04:40.585Z,57.59
2023-01-13T12:06:12.672Z,57.75
2023-01-13T12:08:03.471Z,57.37
2023-01-13T12:09:41.553Z,57.43
2023-01-13T12:11:34.543Z,57.46
2023-01-13T12:13:11.575Z,57.46
2023-01-13T12:14:46.809Z,57.11
2023-01-13T12:16:24.718Z,56.98
2023-01-13T12:18:04.956Z,57.18
2023-01-13T12:19:37.155Z,57.20
2023-01-13T12:21:20.297Z,57.06
2023-01-13T12:22:53.423Z,56.96
2023-01-13T12:24:31.986Z,56.69
2023-01-13T12:26:10.615Z,56.66
2023-01-13T12:27:47.614Z,56.35
2023-01-13T12:29:47.834Z,56.53
2023-01-13T12:33:32.837Z,56.32
2023-01-13T12:35:26.556Z,56.60
2023-01-13T12:37:10.198Z,56.49
2023-01-13T12:39:11.991Z,56.39
2023-01-13T12:41:07.555Z,56.67
2023-01-13T12:43:04.173Z,56.56
2023-01-13T12:44:36.470Z,56.67
2023-01-13T12:46:21.693Z,56.88
2023-01-13T12:47:53.765Z,56.64
2023-01-13T12:49:25.439Z,56.56
2023-01-13T12:51:03.370Z,56.99
2023-01-13T12:52:45.327Z,56.46
2023-01-13T12:54:35.785Z,56.58
2023-01-13T12:56:29.093Z,56.54
2023-01-13T12:58:07.548Z,56.80
2023-01-13T12:59:39.687Z,56.65
2023-01-13T13:01:12.162Z,56.92
2023-01-13T13:03:01.561Z,56.57
2023-01-13T13:04:48.319Z,56.36
2023-01-13T13:06:20.896Z,56.39
2023-01-13T13:07:53.697Z,56.59
2023-01-13T13:09:25.929Z,56.46
2023-01-13T13:11:03.359Z,56.66
2023-01-13T13:13:10.044Z,56.95
2023-01-13T13:14:42.368Z,56.85
2023-01-13T13:16:40.285Z,56.42
2023-01-13T13:18:19.103Z,56.43
2023-01-13T13:19:51.330Z,56.59
2023-01-13T13:21:23.007Z,56.60
2023-01-13T13:22:55.266Z,56.65
2023-01-13T13:24:26.898Z,56.63
2023-01-13T13:26:17.076Z,56.31
2023-01-13T13:28:07.359Z,56.26
2023-01-13T13:29:48.267Z,56.55
2023-01-13T13:31:20.434Z,56.39
2023-01-13T13:32:57.056Z,56.30
2023-01-13T13:34:46.993Z,56.28
2023-01-13T13:36:29.319Z,56.03
2023-01-13T13:38:27.888Z,55.84
2023-01-13T13:40:21.590Z,56.03
2023-01-13T13:42:17.786Z,55.86
2023-01-13T13:44:08.185Z,55.55
2023-01-13T13:46:12.699Z,55.84
2023-01-13T13:47:44.961Z,55.64
2023-01-13T13:49:18.159Z,55.57
2023-01-13T13:50:57.259Z,55.48
2023-01-13T13:52:43.008Z,55.65
2023-01-13T13:54:16.799Z,55.48
2023-01-13T13:55:55.632Z,55.75
2023-01-13T13:57:31.372Z,55.49
2023-01-13T13:59:04.193Z,55.76
2023-01-13T14:00:36.463Z,55.90
2023-01-13T14:02:13.402Z,55.82
2023-01-13T14:03:49.211Z,55.82
2023-01-13T14:05:23.033Z,55.44
2023-01-13T14:07:01.332Z,55.87
2023-01-13T14:08:37.367Z,55.66
2023-01-13T14:10:16.573Z,56.13
2023-01-13T14:11:55.648Z,55.55
2023-01-13T14:13:31.541Z,55.36
2023-01-13T14:15:03.629Z,55.61
2023-01-13T14:16:36.487Z,55.03
2023-01-13T14:18:15.987Z,55.29
2023-01-13T14:19:58.684Z,55.44
2023-01-13T14:21:31.156Z,55.31
2023-01-13T14:23:06.512Z,55.25
2023-01-13T14:24:45.712Z,55.29
2023-01-13T14:26:18.081Z,55.43
2023-01-13T14:27:53.315Z,55.45
2023-01-13T14:29:26.573Z,55.48
2023-01-13T14:31:01.762Z,55.14
2023-01-13T14:32:35.754Z,56.01
2023-01-13T14:34:31.166Z,55.72
2023-01-13T14:36:33.470Z,56.03
2023-01-13T14:38:16.480Z,55.77
2023-01-13T14:39:48.488Z,55.43
2023-01-13T14:41:25.221Z,55.59
2023-01-13T14:43:00.236Z,56.07
2023-01-13T14:44:39.102Z,56.19
2023-01-13T14:46:11.417Z,56.23
2023-01-13T14:47:49.302Z,55.74
2023-01-13T14:49:32.990Z,55.77
2023-01-13T14:51:11.515Z,56.46
2023-01-13T14:52:50.831Z,55.90
2023-01-13T14:54:41.024Z,55.95
2023-01-13T14:56:33.535Z,55.94
2023-01-13T14:58:37.900Z,56.57
2023-01-13T15:00:16.768Z,56.06
2023-01-13T15:01:48.863Z,56.12
2023-01-13T15:03:23.387Z,55.78
2023-01-13T15:05:01.927Z,55.80
2023-01-13T15:06:40.956Z,56.10
2023-01-13T15:08:14.767Z,56.30
2023-01-13T15:09:46.875Z,56.23
2023-01-13T15:11:24.839Z,56.39
2023-01-13T15:12:58.681Z,56.90
2023-01-13T15:14:32.779Z,55.99
2023-01-13T15:16:06.463Z,56.96
2023-01-13T15:17:39.048Z,56.49
2023-01-13T15:19:11.642Z,56.49
2023-01-13T15:20:44.763Z,56.71
2023-01-13T15:22:17.255Z,56.56
2023-01-13T15:23:51.405Z,56.71
2023-01-13T15:25:23.701Z,56.98
2023-01-13T15:26:56.205Z,56.96
2023-01-13T15:28:28.651Z,57.50
2023-01-13T15:30:00.884Z,56.81
2023-01-13T15:31:33.342Z,56.94
2023-01-13T15:33:05.556Z,56.75
2023-01-13T15:34:37.575Z,57.18
2023-01-13T15:36:20.427Z,56.94
2023-01-13T15:37:52.493Z,56.24
2023-01-13T15:39:24.616Z,56.88
2023-01-13T15:40:56.578Z,56.79
2023-01-13T15:42:49.286Z,56.75
2023-01-13T15:44:39.903Z,56.80
2023-01-13T15:46:31.425Z,56.98
2023-01-13T15:48:03.063Z,57.09
2023-01-13T15:49:36.402Z,56.39
2023-01-13T15:51:08.969Z,56.81
2023-01-13T15:52:40.644Z,56.90
2023-01-13T15:54:12.808Z,56.19
2023-01-13T15:55:44.991Z,56.29
2023-01-13T15:57:21.369Z,56.50
2023-01-13T15:58:53.023Z,56.17
2023-01-13T16:00:25.038Z,55.99
2023-01-13T16:01:56.871Z,56.31
2023-01-13T16:03:28.463Z,56.56
2023-01-13T16:05:00.547Z,56.27
2023-01-13T16:06:36.317Z,56.22
2023-01-13T16:08:25.502Z,56.95
2023-01-13T16:09:57.114Z,56.91
2023-01-13T16:11:28.783Z,56.57
2023-01-13T16:13:01.276Z,56.38
2023-01-13T16:14:32.867Z,56.56
2023-01-13T16:16:04.759Z,56.63
2023-01-13T16:17:36.567Z,56.28
2023-01-13T16:19:09.672Z,56.31
2023-01-13T16:20:41.348Z,56.14
2023-01-13T16:22:14.310Z,56.19
2023-01-13T16:23:46.451Z,56.66
2023-01-13T16:25:19.667Z,56.51
2023-01-13T16:26:51.201Z,57.03
2023-01-13T16:28:24.340Z,57.13
2023-01-13T16:29:55.944Z,57.44
2023-01-13T16:31:30.733Z,56.76
2023-01-13T16:33:02.777Z,56.77
2023-01-13T16:34:34.353Z,56.92
2023-01-13T16:36:11.778Z,57.46
2023-01-13T16:37:47.254Z,57.94
2023-01-13T16:39:22.549Z,57.59
2023-01-13T16:40:54.272Z,57.17
2023-01-13T16:42:25.969Z,57.69
2023-01-13T16:43:58.178Z,57.61
2023-01-13T16:45:30.404Z,57.18
2023-01-13T16:47:02.172Z,57.23
2023-01-13T16:48:33.947Z,57.09
2023-01-13T16:50:06.035Z,57.04
2023-01-13T16:51:37.674Z,57.48
2023-01-13T16:53:12.009Z,57.22
2023-01-13T16:54:43.563Z,57.02
2023-01-13T16:56:17.179Z,57.40
2023-01-13T16:57:48.880Z,56.80
2023-01-13T16:59:21.733Z,56.79
2023-01-13T17:00:53.469Z,57.10
2023-01-13T17:02:25.246Z,56.96
2023-01-13T17:03:57.177Z,57.14
2023-01-13T17:05:28.838Z,57.02
2023-01-13T17:07:01.748Z,57.03
2023-01-13T17:08:33.440Z,57.17
2023-01-13T17:10:05.631Z,56.89
2023-01-13T17:11:37.440Z,57.14
2023-01-13T17:13:15.952Z,57.25
2023-01-13T17:14:48.217Z,56.79
2023-01-13T17:16:21.241Z,57.29
2023-01-13T17:17:55.417Z,56.85
2023-01-13T17:19:27.117Z,57.35
2023-01-13T17:21:00.179Z,57.36
2023-01-13T17:22:31.909Z,56.96
2023-01-13T17:24:05.994Z,57.04
2023-01-13T17:25:37.577Z,56.95
2023-01-13T17:27:09.437Z,56.74
2023-01-13T17:28:41.115Z,56.90
2023-01-13T17:30:14.779Z,57.28
2023-01-13T17:31:46.491Z,57.02
2023-01-13T17:33:18.313Z,56.93
2023-01-13T17:34:50.090Z,56.78
2023-01-13T17:36:24.229Z,56.75
2023-01-13T17:37:56.571Z,57.34
2023-01-13T17:39:28.432Z,56.82
2023-01-13T17:41:04.158Z,56.76
2023-01-13T17:42:37.181Z,56.78
2023-01-13T17:44:09.411Z,56.73
2023-01-13T17:45:41.775Z,57.35
2023-01-13T17:47:14.229Z,57.41
2023-01-13T17:48:50.739Z,56.67
2023-01-13T17:50:22.531Z,57.06
2023-01-13T17:51:54.176Z,56.97
2023-01-13T17:53:25.777Z,57.36
2023-01-13T17:54:57.888Z,56.83
2023-01-13T17:56:29.935Z,57.19
2023-01-13T17:58:02.024Z,57.05
2023-01-13T17:59:33.617Z,56.81
2023-01-13T18:01:09.673Z,56.93
2023-01-13T18:02:41.436Z,56.60
2023-01-13T18:04:16.844Z,56.93
2023-01-13T18:05:48.694Z,56.41
2023-01-13T18:07:20.691Z,56.40
2023-01-13T18:08:52.530Z,57.14
2023-01-13T18:10:24.329Z,57.07
2023-01-13T18:11:56.056Z,56.85
2023-01-13T18:13:28.406Z,56.88
2023-01-13T18:15:00.106Z,57.11
2023-01-13T18:16:31.996Z,56.83
2023-01-13T18:18:03.765Z,56.84
2023-01-13T18:19:53.908Z,56.86
2023-01-13T18:21:44.723Z,56.98
2023-01-13T18:23:35.448Z,56.92
2023-01-13T18:25:28.147Z,57.06
2023-01-13T18:27:18.636Z,56.52
2023-01-13T18:28:50.247Z,56.99
2023-01-13T18:30:22.152Z,57.05
2023-01-13T18:31:53.908Z,56.71
2023-01-13T18:33:25.506Z,56.74
2023-01-13T18:35:06.650Z,56.78
2023-01-13T18:36:38.940Z,56.75
2023-01-13T18:38:13.625Z,56.84
2023-01-13T18:39:45.554Z,57.31
2023-01-13T18:41:35.674Z,56.64
2023-01-13T18:43:07.332Z,57.23
2023-01-13T18:44:39.086Z,56.64
2023-01-13T18:46:10.695Z,57.24
2023-01-13T18:47:42.682Z,57.19
2023-01-13T18:49:14.379Z,56.89
2023-01-13T18:50:46.579Z,56.71
2023-01-13T18:52:18.445Z,57.18
2023-01-13T18:53:50.102Z,57.48
2023-01-13T18:55:21.876Z,57.49
2023-01-13T18:56:53.916Z,56.80
2023-01-13T18:58:25.672Z,56.43
2023-01-13T18:59:57.847Z,56.68
2023-01-13T19:01:30.209Z,56.62
2023-01-13T19:04:37.416Z,57.14
2023-01-13T19:06:11.910Z,56.76
2023-01-13T19:07:50.324Z,56.44
2023-01-13T19:09:24.817Z,56.85
2023-01-13T19:10:57.318Z,57.21
2023-01-13T19:12:31.170Z,57.13
2023-01-13T19:14:03.134Z,56.65
2023-01-13T19:15:36.212Z,57.27
2023-01-13T19:17:11.309Z,56.76
2023-01-13T19:18:43.076Z,56.98
2023-01-13T19:20:14.671Z,56.70
2023-01-13T19:21:46.518Z,56.57
2023-01-13T19:23:18.989Z,57.28
2023-01-13T19:24:50.750Z,56.87
2023-01-13T19:26:22.565Z,57.05
2023-01-13T19:27:54.265Z,57.12
2023-01-13T19:29:25.982Z,56.89
2023-01-13T19:31:04.439Z,57.61
2023-01-13T19:32:36.722Z,56.94
2023-01-13T19:34:08.311Z,56.96
2023-01-13T19:35:40.091Z,57.55
2023-01-13T19:37:12.452Z,57.86
2023-01-13T19:38:44.302Z,57.98
2023-01-13T19:40:16.783Z,57.80
2023-01-13T19:42:07.239Z,57.57
2023-01-13T19:43:57.706Z,58.13
2023-01-13T19:45:34.092Z,57.63
2023-01-13T19:47:06.813Z,57.49
2023-01-13T19:48:38.711Z,58.01
2023-01-13T19:50:10.705Z,57.69
2023-01-13T19:51:42.450Z,57.82
2023-01-13T19:53:17.716Z,57.22
2023-01-13T19:54:49.612Z,57.84
2023-01-13T19:56:21.215Z,57.33
2023-01-13T19:57:52.839Z,57.91
2023-01-13T19:59:29.290Z,58.07
2023-01-13T20:01:07.938Z,57.64
2023-01-13T20:02:44.964Z,57.86
2023-01-13T20:04:19.580Z,57.98
2023-01-13T20:05:51.705Z,57.72
2023-01-13T20:07:24.425Z,57.38
2023-01-13T20:08:56.177Z,57.72
2023-01-13T20:10:30.457Z,57.10
2023-01-13T20:12:15.405Z,57.06
2023-01-13T20:13:47.317Z,56.97
2023-01-13T20:15:19.080Z,57.60
2023-01-13T20:16:50.804Z,57.07
2023-01-13T20:18:22.511Z,57.65
2023-01-13T20:19:54.703Z,57.68
2023-01-13T20:21:26.781Z,57.38
2023-01-13T20:22:59.751Z,57.55
2023-01-13T20:24:31.254Z,57.98
2023-01-13T20:26:02.957Z,57.66
2023-01-13T20:27:35.122Z,57.85
2023-01-13T20:29:07.035Z,58.37
2023-01-13T20:30:39.726Z,58.13
2023-01-13T20:32:11.422Z,58.44
2023-01-13T20:33:43.120Z,58.39
2023-01-13T20:35:14.805Z,58.03
2023-01-13T20:36:46.991Z,58.21
2023-01-13T20:38:19.420Z,58.22
2023-01-13T20:39:51.200Z,57.98
2023-01-13T20:41:41.692Z,58.11
2023-01-13T20:43:13.259Z,58.21
2023-01-13T20:44:46.834Z,58.00
2023-01-13T20:46:18.497Z,58.30
2023-01-13T20:47:50.105Z,58.31
2023-01-13T20:49:21.897Z,58.36
2023-01-13T20:50:54.481Z,58.19
2023-01-13T20:52:26.113Z,58.19